createdAt,value
2023-01-19T01:49:40.913Z,30.73
2023-01-19T02:04:50.865Z,32.20
2023-01-19T02:19:52.674Z,35.63
2023-01-19T02:34:55.403Z,32.60
2023-01-19T02:49:58.928Z,35.53
2023-01-19T03:05:22.738Z,32.40
2023-01-19T03:20:25.735Z,32.53
2023-01-19T03:35:31.977Z,27.70
2023-01-19T03:50:34.231Z,29.97
2023-01-19T04:05:37.851Z,25.90
2023-01-19T04:20:39.695Z,16.73
2023-01-19T04:35:42.557Z,27.70
2023-01-19T04:50:45.190Z,20.70
2023-01-19T05:05:47.069Z,24.43
2023-01-19T05:20:48.853Z,25.80
2023-01-19T05:35:51.668Z,23.67
2023-01-19T05:50:58.459Z,21.57
2023-01-19T06:06:01.050Z,23.83
2023-01-19T06:21:07.903Z,23.30
2023-01-19T06:36:09.844Z,25.70
2023-01-19T06:51:11.989Z,22.73
2023-01-19T07:06:13.803Z,25.30
2023-01-19T07:21:15.826Z,21.97
2023-01-19T14:22:04.095Z,21.60
2023-01-19T14:37:21.604Z,21.57
2023-01-19T14:52:34.245Z,20.50
2023-01-19T17:33:10.266Z,29.67
2023-01-19T17:48:13.516Z,27.30
2023-01-19T18:03:15.849Z,22.70
2023-01-19T18:18:18.444Z,27.23
2023-01-19T18:33:21.022Z,23.30
2023-01-19T18:48:23.063Z,16.83
2023-01-19T19:03:25.385Z,22.90
2023-01-19T19:18:27.172Z,19.90
2023-01-19T19:33:29.235Z,20.60
2023-01-19T19:48:31.144Z,20.97
2023-01-19T20:03:33.137Z,24.50
2023-01-19T20:18:36.920Z,22.50
2023-01-19T20:33:39.752Z,22.53
2023-01-19T20:48:41.692Z,21.33
2023-01-19T21:03:43.936Z,21.73
2023-01-19T21:18:45.732Z,20.47
2023-01-19T21:33:49.655Z,19.63
2023-01-19T21:48:51.663Z,21.47
2023-01-19T22:03:55.174Z,21.30
2023-01-19T22:19:01.145Z,23.83
2023-01-19T22:34:03.604Z,21.77
2023-01-19T22:49:07.636Z,22.43
2023-01-19T23:04:13.497Z,20.97
2023-01-19T23:19:17.306Z,22.63
2023-01-19T23:34:19.788Z,24.30
2023-01-19T23:49:21.915Z,26.73
